PABI/DJN METAR and TAF weather

Enter ICAO airport designator
Station Type Date Time Source
PABI METAR 2020/01/27 13:53 UTC NOAA

PABI 271353Z AUTO 00000KT 10SM FEW060 M34/M38 A2967 RMK AO2 SNE07 SLP126 P0000 T13391378 TSNO


Station Type Date Time Source
PABI Decoded METAR 2020/01/27 13:53 UTC NOAA

ALLEN ARMY AIRFIELD, AK, United States (PABI) 64-00N 145-43W 391M
Jan 27, 2020 - 08:53 AM EST / 2020.01.27 1353 UTC
Wind: Calm:0
Visibility: 10 mile(s):0
Sky conditions: mostly clear
Precipitation last hour: A trace
Temperature: -29.0 F (-33.9 C)
Dew Point: -36.0 F (-37.8 C)
Relative Humidity: 67%
Pressure (altimeter): 29.67 in. Hg (1004 hPa)
ob: PABI 271353Z AUTO 00000KT 10SM FEW060 M34/M38 A2967 RMK AO2 SNE07 SLP126 P0000 T13391378 TSNO
cycle: 14

Station Type Date Time Source
PABI TAF 2020/01/25 06:12 UTC NOAA

TAF PABI 250600Z 2506/2612 27009KT 9999 BKN070 OVC090 620706 QNH2960INS
BECMG 2511/2512 27009KT 9000 BR BKN010 OVC020 620105 QNH2967INS
TEMPO 2515/2518 BKN008 620085
BECMG 2520/2521 28009KT 9999 NSW BKN020 620204 QNH2977INS TXM22/2515Z TNM38/2523Z FOR MIL USE ONLY LAST NO
AMDS AFT 2506 NEXT 2714

Example: see airport list